Time;durP1;ratioP1;P1;durP2;ratioP2;P2;SDS_P1;SDS_P2;PMS_P1;PMS_P2;Temp;Humidity;BMP_temperature;BMP_pressure;BME280_temperature;BME280_humidity;BME280_pressure;Samples;Min_cycle;Max_cycle;Signal;HPM_P1;HPM_P2
2022/09/05 00:02:08;;;;;;;9.08;4.10;;;;;;;10.89;80.83;100913.73;1722666;82;20993;-66
2022/09/05 00:05:11;;;;;;;7.78;4.28;;;;;;;10.92;80.35;100909.69;1716572;82;21064;-66
2022/09/05 00:08:22;;;;;;;7.90;3.83;;;;;;;10.92;79.85;100905.73;1713361;82;21233;-66
2022/09/05 00:10:59;;;;;;;5.37;3.50;;;;;;;10.93;80.33;100910.12;1723487;82;21117;-68
2022/09/05 00:13:35;;;;;;;7.22;4.10;;;;;;;10.94;80.49;100906.56;1716182;82;21053;-66
2022/09/05 00:16:40;;;;;;;10.82;4.37;;;;;;;10.95;81.03;100903.47;1713180;83;21115;-68
2022/09/05 00:19:38;;;;;;;5.72;3.75;;;;;;;10.96;80.61;100900.80;1677644;84;22219;-67
2022/09/05 00:22:23;;;;;;;6.35;3.98;;;;;;;10.98;80.40;100902.95;1661142;85;21599;-66
2022/09/05 00:25:27;;;;;;;4.78;3.20;;;;;;;10.98;80.64;100889.77;1666305;83;21210;-66
2022/09/05 00:28:33;;;;;;;8.93;4.33;;;;;;;11.00;81.38;100895.87;1693734;83;21510;-66
2022/09/05 00:31:14;;;;;;;6.87;3.80;;;;;;;11.02;81.53;100890.11;1657340;84;21144;-66
2022/09/05 00:34:08;;;;;;;6.35;3.98;;;;;;;11.05;80.98;100892.65;1660461;85;21781;-66
2022/09/05 00:36:54;;;;;;;6.40;3.75;;;;;;;11.08;80.94;100892.56;1666275;85;21196;-66
2022/09/05 00:39:37;;;;;;;7.12;4.25;;;;;;;11.10;80.14;100892.06;1645589;85;21624;-66
2022/09/05 00:42:09;;;;;;;8.50;4.58;;;;;;;11.11;79.82;100884.59;1661467;85;21062;-66
2022/09/05 00:44:47;;;;;;;9.00;4.22;;;;;;;11.12;79.38;100882.35;1653894;85;21153;-66
2022/09/05 00:47:25;;;;;;;7.67;4.10;;;;;;;11.10;79.15;100880.20;1644444;85;21153;-68
2022/09/05 00:49:58;;;;;;;6.78;3.40;;;;;;;11.09;79.04;100876.31;1649180;85;21564;-67
2022/09/05 00:52:40;;;;;;;7.12;3.62;;;;;;;11.05;80.01;100875.52;1655701;85;21537;-66
2022/09/05 00:55:20;;;;;;;7.05;3.80;;;;;;;11.01;80.48;100873.86;1665162;83;21144;-66
2022/09/05 00:58:17;;;;;;;9.23;4.08;;;;;;;10.94;80.97;100871.45;1676441;84;21102;-67
2022/09/05 01:01:00;;;;;;;10.82;4.37;;;;;;;10.88;81.30;100872.45;1686436;83;21241;-65
2022/09/05 01:03:58;;;;;;;8.60;4.25;;;;;;;10.83;81.04;100870.40;1672765;83;21681;-65
2022/09/05 01:07:09;;;;;;;6.97;3.65;;;;;;;10.75;81.06;100876.34;1675835;83;21535;-65
2022/09/05 01:10:02;;;;;;;9.65;4.83;;;;;;;10.63;81.37;100874.89;1677804;83;21107;-66
2022/09/05 01:12:51;;;;;;;6.72;4.45;;;;;;;10.48;82.04;100868.22;1689674;83;21023;-66
2022/09/05 01:15:26;;;;;;;8.83;4.78;;;;;;;10.42;82.21;100865.72;1699138;84;21290;-65
2022/09/05 01:18:13;;;;;;;7.80;3.83;;;;;;;10.36;81.68;100864.58;1695350;84;21100;-66
2022/09/05 01:21:11;;;;;;;11.68;4.83;;;;;;;10.28;81.65;100860.37;1682655;83;21045;-66
2022/09/05 01:24:18;;;;;;;8.35;4.55;;;;;;;10.22;82.12;100867.05;1678266;83;21275;-66
2022/09/05 01:27:00;;;;;;;8.40;4.78;;;;;;;10.14;82.94;100861.09;1678185;83;21147;-66
2022/09/05 01:29:51;;;;;;;8.98;4.03;;;;;;;10.08;83.90;100863.89;1668533;84;21270;-66
2022/09/05 01:32:34;;;;;;;5.33;2.80;;;;;;;10.02;84.19;100856.12;1672863;83;21123;-66
2022/09/05 01:35:41;;;;;;;10.35;4.58;;;;;;;9.98;84.75;100857.95;1694724;83;21042;-66
2022/09/05 01:38:20;;;;;;;13.35;5.15;;;;;;;9.92;84.46;100858.11;1691531;83;21184;-65
2022/09/05 01:41:11;;;;;;;9.45;4.85;;;;;;;9.84;84.70;100856.95;1703917;84;21019;-66
2022/09/05 01:44:06;;;;;;;8.05;4.80;;;;;;;9.83;85.11;100853.91;1698586;84;21588;-66
2022/09/05 01:46:59;;;;;;;10.60;5.15;;;;;;;9.79;85.42;100848.30;1680380;83;21057;-65
2022/09/05 01:49:56;;;;;;;7.97;5.17;;;;;;;9.74;85.03;100848.86;1675610;83;21097;-65
2022/09/05 01:53:10;;;;;;;11.40;5.37;;;;;;;9.72;85.04;100846.70;1673538;83;22177;-67
2022/09/05 01:56:16;;;;;;;9.58;4.78;;;;;;;9.70;85.80;100852.45;1683584;83;21148;-66
2022/09/05 01:59:36;;;;;;;13.30;5.33;;;;;;;9.68;85.89;100848.98;1687104;83;21704;-67
2022/09/05 02:05:29;;;;;;;7.25;4.60;;;;;;;9.68;85.48;100838.46;1851726;77;28151;-66
2022/09/05 02:08:15;;;;;;;8.03;4.65;;;;;;;9.65;85.41;100844.66;1787146;80;21060;-67
2022/09/05 02:10:53;;;;;;;9.30;4.45;;;;;;;9.71;85.35;100842.36;1787389;80;21593;-66
2022/09/05 02:13:35;;;;;;;8.13;4.70;;;;;;;9.74;85.52;100842.73;1774866;80;21565;-67
2022/09/05 02:16:19;;;;;;;7.28;4.47;;;;;;;9.74;85.80;100839.66;1787652;80;21501;-66
2022/09/05 02:19:18;;;;;;;7.37;4.62;;;;;;;9.76;85.68;100833.91;1754542;81;21068;-66
2022/09/05 02:21:53;;;;;;;11.18;5.62;;;;;;;9.74;86.05;100829.59;1787905;80;21052;-66
2022/09/05 02:24:34;;;;;;;13.15;5.40;;;;;;;9.71;86.98;100825.27;1754692;81;21813;-66
2022/09/05 02:27:23;;;;;;;8.98;5.42;;;;;;;9.73;87.36;100825.20;1787353;80;21073;-66
2022/09/05 02:30:15;;;;;;;7.00;4.70;;;;;;;9.76;87.37;100828.65;1754582;81;21072;-67
2022/09/05 02:32:51;;;;;;;7.55;4.10;;;;;;;9.80;87.39;100825.06;1754812;81;21522;-67
2022/09/05 02:35:37;;;;;;;8.60;4.40;;;;;;;9.82;87.70;100821.95;1787572;80;21496;-66
2022/09/05 02:38:41;;;;;;;7.83;4.92;;;;;;;9.83;88.04;100814.45;1754694;81;21121;-66
2022/09/05 02:41:43;;;;;;;10.08;4.60;;;;;;;9.90;88.42;100815.18;1787244;80;21517;-67
2022/09/05 02:44:21;;;;;;;9.80;4.25;;;;;;;9.93;88.78;100815.55;1745695;81;21601;-64
2022/09/05 02:47:21;;;;;;;10.58;4.72;;;;;;;9.97;89.28;100815.91;1787825;80;21051;-66
2022/09/05 02:50:35;;;;;;;12.98;6.70;;;;;;;9.98;89.58;100807.95;1754638;81;21026;-67
2022/09/05 02:53:01;;;;;;;11.60;5.85;;;;;;;10.02;89.91;100815.34;1787083;80;21205;-67
2022/09/05 02:55:46;;;;;;;9.33;5.53;;;;;;;10.03;89.13;100815.73;1754544;81;21085;-67
2022/09/05 02:58:48;;;;;;;10.75;5.00;;;;;;;10.05;88.93;100813.94;1785915;80;21020;-66
2022/09/05 03:02:04;;;;;;;12.58;5.33;;;;;;;10.08;88.77;100819.16;1761026;80;21047;-64
2022/09/05 03:05:09;;;;;;;9.58;5.28;;;;;;;10.11;88.47;100819.06;1726496;81;21018;-66
2022/09/05 03:07:47;;;;;;;9.85;5.28;;;;;;;10.16;87.75;100826.39;1790968;80;21128;-67
2022/09/05 03:10:35;;;;;;;9.28;5.30;;;;;;;10.22;87.62;100817.50;1791155;80;21589;-66
2022/09/05 03:13:44;;;;;;;10.43;5.15;;;;;;;10.26;87.75;100821.33;1791040;80;21032;-66
2022/09/05 03:17:03;;;;;;;9.30;5.42;;;;;;;10.29;87.79;100820.42;1790647;80;21039;-66
2022/09/05 03:19:51;;;;;;;8.73;5.42;;;;;;;10.33;87.35;100826.45;1790660;79;21124;-65
2022/09/05 03:22:46;;;;;;;10.72;5.25;;;;;;;10.36;87.25;100826.41;1759344;80;21092;-65
2022/09/05 03:25:56;;;;;;;13.48;5.90;;;;;;;10.38;86.94;100825.45;1790834;80;21549;-66
2022/09/05 03:29:17;;;;;;;9.75;5.62;;;;;;;10.41;86.08;100818.79;1737403;82;21035;-66
2022/09/05 03:32:18;;;;;;;9.40;5.60;;;;;;;10.45;85.93;100816.95;1737850;82;21640;-66
2022/09/05 03:35:20;;;;;;;10.85;6.15;;;;;;;10.50;85.98;100821.65;1789859;80;21142;-66
2022/09/05 03:38:31;;;;;;;13.20;6.62;;;;;;;10.56;85.56;100822.81;1790558;79;21895;-66
2022/09/05 03:41:11;;;;;;;15.93;6.03;;;;;;;10.60;84.54;100820.48;1790151;79;21068;-67
2022/09/05 03:44:02;;;;;;;13.38;6.17;;;;;;;10.66;84.00;100820.34;1790527;80;25259;-67
2022/09/05 03:46:54;;;;;;;14.03;6.87;;;;;;;10.73;83.54;100825.45;1790837;79;21083;-67
2022/09/05 03:49:43;;;;;;;9.65;6.05;;;;;;;10.77;82.77;100829.75;1789866;80;21597;-68
2022/09/05 03:52:51;;;;;;;10.60;6.42;;;;;;;10.81;81.55;100830.05;1789711;80;21211;-68
2022/09/05 03:55:41;;;;;;;12.98;7.03;;;;;;;10.86;80.96;100824.23;1765967;79;21080;-66
2022/09/05 03:58:47;;;;;;;13.68;6.97;;;;;;;10.91;80.05;100819.69;1759227;81;21036;-67
2022/09/05 04:01:19;;;;;;;13.38;6.50;;;;;;;10.95;79.43;100825.30;1745865;81;21005;-66
2022/09/05 04:03:56;;;;;;;14.58;6.60;;;;;;;11.00;78.70;100824.70;1744924;80;21040;-66
2022/09/05 04:06:36;;;;;;;10.95;5.53;;;;;;;11.04;78.89;100828.11;1742780;82;21064;-68
2022/09/05 04:09:25;;;;;;;10.98;6.05;;;;;;;11.03;79.62;100824.61;1711556;82;21102;-66
2022/09/05 04:11:56;;;;;;;11.97;6.22;;;;;;;11.05;80.54;100824.58;1742641;82;21069;-66
2022/09/05 04:14:55;;;;;;;14.47;6.55;;;;;;;11.07;81.25;100818.35;1711516;83;21101;-65
2022/09/05 04:17:47;;;;;;;10.82;5.85;;;;;;;11.11;80.64;100824.38;1742566;82;21064;-66
2022/09/05 04:20:38;;;;;;;16.37;5.65;;;;;;;11.16;80.51;100824.25;1713400;83;21108;-65
2022/09/05 04:23:38;;;;;;;9.28;5.65;;;;;;;11.22;80.43;100826.73;1742776;82;21005;-68
2022/09/05 04:26:39;;;;;;;13.95;6.55;;;;;;;11.27;80.75;100827.45;1711972;83;21038;-68
2022/09/05 04:29:40;;;;;;;11.57;5.97;;;;;;;11.32;80.63;100821.16;1742919;82;28071;-67
2022/09/05 04:32:35;;;;;;;11.80;5.40;;;;;;;11.39;81.09;100824.48;1713219;83;21108;-67
2022/09/05 04:35:36;;;;;;;16.27;7.70;;;;;;;11.48;81.23;100828.17;1742942;82;21216;-66
2022/09/05 04:38:16;;;;;;;15.48;7.75;;;;;;;11.55;81.01;100833.66;1742554;82;21069;-67
2022/09/05 04:41:00;;;;;;;15.93;8.15;;;;;;;11.61;79.54;100826.47;1711658;83;21137;-66
2022/09/05 04:43:52;;;;;;;12.45;6.60;;;;;;;11.68;79.21;100826.23;1680593;83;21043;-67
2022/09/05 04:46:27;;;;;;;12.43;7.15;;;;;;;11.76;78.99;100828.19;1742992;82;21041;-67
2022/09/05 04:49:05;;;;;;;14.93;8.10;;;;;;;11.86;78.32;100826.59;1711302;83;22097;-66
2022/09/05 04:51:57;;;;;;;19.17;8.00;;;;;;;11.92;78.14;100827.30;1713044;83;21028;-67
2022/09/05 04:54:44;;;;;;;19.17;8.58;;;;;;;11.99;77.26;100829.28;1755168;80;21021;-67
2022/09/05 04:57:30;;;;;;;15.98;8.35;;;;;;;12.11;76.60;100837.27;1724467;82;21041;-67
2022/09/05 05:00:14;;;;;;;16.73;8.33;;;;;;;12.23;75.84;100836.86;1742510;82;20993;-68
2022/09/05 05:02:52;;;;;;;22.22;10.70;;;;;;;12.35;75.01;100835.59;1773115;80;21516;-66
2022/09/05 05:05:29;;;;;;;22.98;10.90;;;;;;;12.45;73.61;100829.11;1726169;82;21032;-65
2022/09/05 05:08:05;;;;;;;24.85;11.25;;;;;;;12.55;72.94;100830.97;1771939;80;21072;-66
2022/09/05 05:10:41;;;;;;;22.15;11.65;;;;;;;12.66;72.88;100832.79;1773153;80;21022;-70
2022/09/05 05:13:22;;;;;;;20.02;10.58;;;;;;;12.80;72.46;100834.48;1740829;82;21518;-67
2022/09/05 05:16:03;;;;;;;23.25;10.43;;;;;;;12.94;72.19;100838.44;1723694;80;21957;-68
2022/09/05 05:18:44;;;;;;;24.32;10.95;;;;;;;13.10;72.31;100832.14;1740895;82;21018;-67
2022/09/05 05:21:19;;;;;;;25.67;11.37;;;;;;;13.26;72.02;100823.19;1773914;80;21080;-67
2022/09/05 05:23:50;;;;;;;22.40;10.78;;;;;;;13.39;70.83;100831.11;1740998;82;21395;-68
2022/09/05 05:26:31;;;;;;;25.88;11.20;;;;;;;13.49;70.12;100835.12;1773834;80;21001;-67
2022/09/05 05:29:12;;;;;;;21.05;10.85;;;;;;;13.57;70.66;100833.05;1740870;82;21109;-68
2022/09/05 05:31:55;;;;;;;19.00;10.98;;;;;;;13.58;71.87;100844.03;1768808;80;21549;-67
2022/09/05 05:34:30;;;;;;;17.48;10.50;;;;;;;13.58;72.96;100841.39;1740824;82;21585;-67
2022/09/05 05:37:17;;;;;;;21.30;11.18;;;;;;;13.59;74.56;100841.77;1765348;80;21021;-67
2022/09/05 05:40:05;;;;;;;21.93;11.33;;;;;;;13.57;75.05;100843.64;1740990;82;21010;-67
2022/09/05 05:42:32;;;;;;;23.18;12.05;;;;;;;13.54;75.61;100849.03;1773534;80;21166;-67
2022/09/05 05:44:58;;;;;;;24.92;12.82;;;;;;;13.47;75.86;100851.51;1740897;82;21046;-68
2022/09/05 05:47:41;;;;;;;30.27;13.85;;;;;;;13.44;77.39;100852.95;1773617;80;21033;-67
2022/09/05 05:50:33;;;;;;;28.05;13.40;;;;;;;13.40;78.14;100856.63;1742654;82;21020;-65
2022/09/05 05:53:34;;;;;;;24.18;11.65;;;;;;;13.36;78.45;100853.22;1773673;80;21038;-68
2022/09/05 05:56:18;;;;;;;25.82;12.95;;;;;;;13.35;78.66;100863.88;1742931;82;22585;-67
2022/09/05 05:59:30;;;;;;;30.55;12.80;;;;;;;13.33;78.90;100852.48;1742638;82;21234;-68
2022/09/05 06:02:11;;;;;;;32.35;16.23;;;;;;;13.31;79.95;100814.64;1711486;83;21097;-68
2022/09/05 06:05:16;;;;;;;33.65;15.65;;;;;;;13.19;82.65;100813.29;1742600;82;21045;-66
2022/09/05 06:08:14;;;;;;;33.55;16.07;;;;;;;13.12;84.06;100836.45;1711419;83;21106;-67
2022/09/05 06:11:05;;;;;;;36.45;16.73;;;;;;;13.13;85.40;100830.23;1742486;82;21573;-68
2022/09/05 06:14:01;;;;;;;29.48;15.32;;;;;;;13.22;86.65;100844.44;1710673;83;21057;-69
2022/09/05 06:16:55;;;;;;;23.00;12.23;;;;;;;13.46;88.26;100834.36;1741995;82;21040;-67
2022/09/05 06:19:57;;;;;;;31.95;13.68;;;;;;;13.70;89.42;100838.73;1711711;83;21038;-67
2022/09/05 06:22:41;;;;;;;31.95;15.05;;;;;;;13.93;88.31;100846.23;1742680;82;21044;-69
2022/09/05 06:25:49;;;;;;;31.25;17.77;;;;;;;14.14;87.61;100847.16;1711098;83;21372;-68
2022/09/05 06:28:39;;;;;;;42.85;21.85;;;;;;;14.67;87.50;100843.63;1742141;82;21101;-68
2022/09/05 06:31:26;;;;;;;50.50;28.57;;;;;;;15.64;85.65;100841.96;1710745;83;21099;-69
2022/09/05 06:34:26;;;;;;;66.07;35.55;;;;;;;16.59;78.92;100845.83;1742241;82;21595;-67
2022/09/05 06:37:27;;;;;;;82.95;42.93;;;;;;;17.50;74.82;100847.75;1711364;83;21056;-69
2022/09/05 06:40:31;;;;;;;141.18;71.95;;;;;;;18.36;70.26;100842.97;1742526;82;21160;-69
2022/09/05 06:43:28;;;;;;;162.57;87.20;;;;;;;19.11;63.70;100849.64;1710595;83;21199;-70
2022/09/05 06:46:16;;;;;;;173.97;93.58;;;;;;;19.77;61.85;100844.22;1742315;82;21041;-69
2022/09/05 06:49:00;;;;;;;161.32;88.05;;;;;;;20.31;57.72;100847.78;1712329;83;21105;-67
2022/09/05 06:51:49;;;;;;;132.90;73.60;;;;;;;20.81;57.56;100856.53;1649239;85;21101;-69
2022/09/05 06:54:42;;;;;;;132.75;73.60;;;;;;;21.52;55.22;100854.69;1719175;83;21839;-68
2022/09/05 06:57:20;;;;;;;126.85;74.25;;;;;;;22.26;52.53;100861.41;1719225;83;21075;-70
2022/09/05 07:00:07;;;;;;;132.72;72.95;;;;;;;22.41;50.62;100869.66;1719153;83;21066;-68
2022/09/05 07:03:11;;;;;;;124.15;69.45;;;;;;;22.24;49.71;100890.17;1719236;83;21056;-69
2022/09/05 07:06:01;;;;;;;112.22;66.82;;;;;;;21.63;50.03;100894.63;1719166;83;21077;-67
2022/09/05 07:08:54;;;;;;;123.25;68.95;;;;;;;20.59;52.09;100894.13;1719124;83;21303;-69
2022/09/05 07:11:39;;;;;;;141.97;75.87;;;;;;;19.67;55.91;100894.20;1719281;83;21019;-68
2022/09/05 07:14:23;;;;;;;143.00;80.35;;;;;;;18.96;60.25;100875.47;1742640;82;22048;-67
2022/09/05 07:16:54;;;;;;;131.75;73.25;;;;;;;18.36;64.04;100864.30;1741584;82;21069;-68
2022/09/05 07:19:39;;;;;;;135.28;74.92;;;;;;;17.85;66.76;100900.92;1711719;83;21034;-69
2022/09/05 07:22:24;;;;;;;166.40;92.20;;;;;;;17.57;71.75;100932.55;1742812;82;21134;-69
2022/09/05 07:24:51;;;;;;;167.75;89.58;;;;;;;17.06;74.06;100936.14;1711585;83;21054;-68
2022/09/05 07:27:38;;;;;;;167.75;89.65;;;;;;;16.54;77.33;100935.58;1742614;82;21068;-71
2022/09/05 07:30:06;;;;;;;172.78;91.02;;;;;;;16.10;79.62;100940.80;1713167;83;21019;-70
2022/09/05 07:32:41;;;;;;;179.65;94.10;;;;;;;15.83;81.72;100926.15;1742609;82;21021;-68
2022/09/05 07:35:12;;;;;;;165.35;90.35;;;;;;;15.63;82.20;100924.36;1711601;83;21118;-67
2022/09/05 07:37:42;;;;;;;182.30;96.17;;;;;;;15.46;84.67;100929.08;1742424;82;21549;-68
2022/09/05 07:40:16;;;;;;;180.85;97.02;;;;;;;15.23;85.04;100927.00;1711567;83;21065;-69
2022/09/05 07:43:08;;;;;;;154.90;82.85;;;;;;;15.08;86.17;100925.00;1742516;82;20993;-68
2022/09/05 07:45:40;;;;;;;161.30;84.17;;;;;;;14.96;86.92;100930.38;1712896;83;21020;-68
2022/09/05 07:48:17;;;;;;;171.93;85.53;;;;;;;14.81;86.77;100959.70;1742130;82;21870;-68
2022/09/05 07:50:53;;;;;;;166.20;86.00;;;;;;;14.68;88.12;100971.77;1709587;83;21030;-68
2022/09/05 07:53:19;;;;;;;150.18;80.57;;;;;;;14.53;89.59;100969.69;1742580;82;21005;-68
2022/09/05 07:55:55;;;;;;;141.77;71.17;;;;;;;14.36;90.57;100965.92;1720951;82;21549;-67
2022/09/05 07:58:24;;;;;;;131.25;67.35;;;;;;;14.24;90.32;100966.39;1773409;80;21103;-68
2022/09/05 08:00:52;;;;;;;132.15;63.30;;;;;;;14.08;90.57;100975.41;1741176;82;21105;-71
2022/09/05 08:03:25;;;;;;;110.05;56.40;;;;;;;13.85;92.47;100969.66;1773038;80;20997;-67
2022/09/05 08:05:54;;;;;;;107.03;53.02;;;;;;;13.68;94.26;100963.64;1740963;82;21092;-71
2022/09/05 08:09:05;;;;;;;103.65;53.70;;;;;;;13.61;95.79;100959.03;1752593;80;21088;-68
2022/09/05 08:11:34;;;;;;;108.22;54.53;;;;;;;13.55;98.11;100961.92;1740982;82;21097;-68
2022/09/05 08:14:11;;;;;;;106.72;54.83;;;;;;;13.46;99.69;100963.58;1773178;80;21195;-69
2022/09/05 08:16:41;;;;;;;101.10;53.85;;;;;;;13.46;100.00;100950.78;1740437;82;21086;-69
2022/09/05 08:19:46;;;;;;;102.50;52.80;;;;;;;13.48;100.00;100931.31;1773184;80;21013;-68
2022/09/05 08:22:21;;;;;;;123.45;58.17;;;;;;;13.49;100.00;100914.50;1773438;80;21037;-68
2022/09/05 08:25:01;;;;;;;104.00;53.80;;;;;;;13.43;100.00;100901.48;1768186;80;21665;-69
2022/09/05 08:27:38;;;;;;;;;;;;;;;13.37;100.00;100909.20;1744196;80;21562;-68
2022/09/05 08:30:09;;;;;;;104.32;53.65;;;;;;;13.43;100.00;100906.78;1740847;80;20232;-69
2022/09/05 08:32:48;;;;;;;94.62;50.38;;;;;;;13.48;100.00;100906.61;1768390;80;21043;-69
2022/09/05 08:36:02;;;;;;;99.15;52.13;;;;;;;13.59;100.00;100901.31;1768118;81;21555;-68
2022/09/05 08:38:31;;;;;;;91.50;49.48;;;;;;;14.24;100.00;100902.80;1768420;81;21059;-67
2022/09/05 08:41:28;;;;;;;87.42;47.95;;;;;;;15.42;100.00;100897.00;1768234;81;21133;-69
2022/09/05 08:44:15;;;;;;;93.52;48.48;;;;;;;16.50;100.00;100891.49;1767736;80;22037;-69
2022/09/05 08:46:55;;;;;;;86.50;48.20;;;;;;;17.78;100.00;100891.92;1768324;81;21067;-68
2022/09/05 08:49:46;;;;;;;89.42;48.15;;;;;;;18.96;100.00;100884.33;1767968;81;21035;-68
2022/09/05 08:52:27;;;;;;;94.67;49.35;;;;;;;19.87;95.04;100888.94;1768658;81;21056;-68
2022/09/05 08:55:17;;;;;;;83.03;45.52;;;;;;;20.94;86.54;100880.17;1752586;80;21135;-69
2022/09/05 08:58:12;;;;;;;82.62;43.73;;;;;;;21.89;76.70;100881.52;1742581;82;21031;-68
2022/09/05 09:00:46;;;;;;;78.45;44.90;;;;;;;22.81;70.38;100880.05;1742378;82;21056;-68
2022/09/05 09:03:24;;;;;;;78.60;45.15;;;;;;;23.59;66.78;100875.80;1674869;83;21133;-68
2022/09/05 09:06:13;;;;;;;67.27;38.65;;;;;;;24.07;59.00;100870.14;1742520;81;21096;-68
2022/09/05 09:09:13;;;;;;;66.27;37.33;;;;;;;24.31;59.01;100863.70;1711656;83;21134;-69
2022/09/05 09:11:55;;;;;;;61.95;36.65;;;;;;;24.58;55.44;100861.07;1742439;82;21193;-68
2022/09/05 09:14:36;;;;;;;51.68;32.20;;;;;;;25.05;54.69;100862.88;1710903;83;21097;-69
2022/09/05 09:17:15;;;;;;;;;;;;;;;25.49;50.20;100859.51;1745142;82;21024;-68
2022/09/05 09:20:17;;;;;;;42.25;22.80;;;;;;;25.85;49.31;100853.17;1733231;82;20204;-68
2022/09/05 09:23:18;;;;;;;42.13;23.87;;;;;;;25.89;46.20;100851.95;1706534;83;21158;-68
2022/09/05 09:26:15;;;;;;;42.25;24.67;;;;;;;25.92;47.28;100844.41;1742380;82;21038;-68
2022/09/05 09:28:52;;;;;;;45.43;26.07;;;;;;;26.12;46.06;100847.16;1711214;83;21046;-69
2022/09/05 09:31:45;;;;;;;40.48;23.77;;;;;;;26.40;45.63;100845.47;1742535;82;21045;-69
2022/09/05 09:34:31;;;;;;;38.38;23.52;;;;;;;26.72;43.97;100845.20;1712904;83;21023;-70
2022/09/05 09:37:29;;;;;;;36.30;22.55;;;;;;;26.77;42.41;100835.30;1742647;82;21535;-68
2022/09/05 09:40:11;;;;;;;34.38;21.05;;;;;;;26.48;42.70;100841.57;1711172;83;22076;-69
2022/09/05 09:42:46;;;;;;;39.70;20.50;;;;;;;26.29;40.65;100837.50;1713956;82;21025;-68
2022/09/05 09:45:30;;;;;;;34.60;19.25;;;;;;;26.31;40.79;100836.87;1711201;83;21061;-69
2022/09/05 09:48:17;;;;;;;33.13;19.52;;;;;;;26.35;38.50;100831.55;1742809;82;21603;-69
2022/09/05 09:51:21;;;;;;;29.10;18.37;;;;;;;26.08;39.62;100824.98;1710631;83;21831;-69
2022/09/05 09:54:27;;;;;;;28.52;15.58;;;;;;;25.91;38.90;100816.24;1747244;80;21033;-68
2022/09/05 09:57:33;;;;;;;27.75;15.10;;;;;;;25.35;37.61;100809.50;1741344;82;21113;-67
2022/09/05 10:00:14;;;;;;;28.83;17.42;;;;;;;25.10;38.86;100810.30;1741930;82;20993;-69
2022/09/05 10:02:50;;;;;;;;;;;;;;;25.19;39.33;100805.98;1692795;83;21034;-68
2022/09/05 10:05:57;;;;;;;30.08;18.37;;;;;;;25.31;39.93;100799.50;1743324;82;21136;-68
2022/09/05 10:09:04;;;;;;;32.83;18.40;;;;;;;25.22;40.47;100804.86;1750234;82;21017;-68
2022/09/05 10:12:13;;;;;;;28.42;15.95;;;;;;;24.97;40.03;100803.42;1718754;83;21664;-68
2022/09/05 10:15:00;;;;;;;27.80;17.07;;;;;;;24.49;40.93;100798.92;1787691;80;21016;-69
2022/09/05 10:17:58;;;;;;;26.10;15.65;;;;;;;24.14;41.28;100802.38;1787438;80;21053;-69
2022/09/05 10:21:02;;;;;;;30.35;15.00;;;;;;;23.69;42.37;100799.77;1787875;80;21278;-69
2022/09/05 10:24:11;;;;;;;29.40;16.00;;;;;;;23.09;43.87;100809.45;1787844;80;21064;-69
2022/09/05 10:27:22;;;;;;;29.87;15.63;;;;;;;22.58;45.17;100816.53;1787991;80;21549;-69
2022/09/05 10:30:08;;;;;;;24.57;14.28;;;;;;;22.23;45.90;100807.99;1787830;80;21080;-68
2022/09/05 10:33:09;;;;;;;24.70;13.68;;;;;;;21.86;46.04;100804.00;1788074;80;21095;-67
2022/09/05 10:35:44;;;;;;;24.85;14.30;;;;;;;21.52;46.70;100806.45;1787973;80;21139;-68
2022/09/05 10:38:16;;;;;;;21.17;11.05;;;;;;;21.12;48.18;100820.47;1787522;80;21072;-69
2022/09/05 10:40:45;;;;;;;16.12;8.85;;;;;;;20.86;47.00;100809.73;1758575;80;21049;-69
2022/09/05 10:43:28;;;;;;;15.68;6.90;;;;;;;20.68;45.05;100815.02;1788164;80;21045;-68
2022/09/05 10:46:12;;;;;;;9.70;4.37;;;;;;;20.53;45.20;100822.25;1787742;80;21366;-69
2022/09/05 10:48:54;;;;;;;5.80;3.95;;;;;;;20.36;43.29;100824.73;1747235;80;21540;-68
2022/09/05 10:51:37;;;;;;;9.53;3.25;;;;;;;20.21;41.89;100816.39;1787919;80;21041;-68
2022/09/05 10:54:27;;;;;;;8.15;3.47;;;;;;;20.21;41.80;100814.56;1794841;79;21315;-68
2022/09/05 10:57:11;;;;;;;8.00;3.77;;;;;;;20.55;41.59;100806.95;1813376;79;21609;-69
2022/09/05 11:00:09;;;;;;;9.05;4.28;;;;;;;21.20;41.47;100797.16;1810496;79;21559;-69
2022/09/05 11:02:41;;;;;;;3.92;2.20;;;;;;;21.93;39.99;100797.70;1813743;79;21243;-67
2022/09/05 11:05:22;;;;;;;4.70;1.95;;;;;;;22.43;37.76;100790.86;1814102;79;21029;-69
2022/09/05 11:08:12;;;;;;;4.33;2.10;;;;;;;22.81;36.79;100789.25;1805615;79;21089;-69
2022/09/05 11:10:57;;;;;;;9.15;3.25;;;;;;;23.30;35.58;100780.51;1805379;79;21490;-69
2022/09/05 11:13:49;;;;;;;5.75;3.02;;;;;;;23.85;35.57;100783.61;1805679;79;21108;-69
2022/09/05 11:16:38;;;;;;;4.00;1.82;;;;;;;24.39;35.11;100776.45;1805661;79;21116;-67
2022/09/05 11:19:09;;;;;;;4.25;1.90;;;;;;;24.93;31.20;100761.56;1805358;79;21077;-67
2022/09/05 11:22:03;;;;;;;5.50;2.17;;;;;;;25.22;30.03;100767.12;1805408;79;21527;-68
2022/09/05 11:24:55;;;;;;;3.55;1.57;;;;;;;25.07;30.31;100753.11;1805395;79;21033;-68
2022/09/05 11:27:32;;;;;;;10.20;2.30;;;;;;;24.81;30.87;100775.61;1805558;79;21518;-68
2022/09/05 11:30:08;;;;;;;5.35;2.42;;;;;;;24.32;31.25;100787.38;1805391;79;21739;-67
2022/09/05 11:33:31;;;;;;;3.30;1.65;;;;;;;23.83;31.63;100777.54;1805405;79;21010;-68
2022/09/05 11:36:21;;;;;;;3.95;1.55;;;;;;;23.41;31.46;100772.44;1805183;79;21039;-69
2022/09/05 11:39:11;;;;;;;6.22;2.42;;;;;;;22.58;33.42;100774.92;1805311;79;21571;-67
2022/09/05 11:41:54;;;;;;;4.37;2.62;;;;;;;22.58;33.42;100774.92;1805232;79;21006;-68
2022/09/05 11:44:48;;;;;;;3.58;2.10;;;;;;;22.25;34.26;100783.25;1805101;79;21130;-69
2022/09/05 11:47:29;;;;;;;4.35;1.70;;;;;;;22.08;33.33;100771.55;1805467;79;21062;-69
2022/09/05 11:50:37;;;;;;;6.67;2.75;;;;;;;22.12;33.55;100769.02;1775548;79;20976;-69
2022/09/05 11:53:29;;;;;;;2.10;1.60;;;;;;;22.46;33.08;100759.28;1805310;79;21006;-69
2022/09/05 11:56:13;;;;;;;2.52;1.55;;;;;;;22.93;30.94;100753.86;1780054;80;21044;-68
2022/09/05 11:58:57;;;;;;;3.55;1.60;;;;;;;22.88;30.18;100753.38;1780252;80;21104;-66
2022/09/05 12:01:57;;;;;;;5.42;2.12;;;;;;;22.80;31.60;100760.20;1779843;80;21017;-66
2022/09/05 12:04:36;;;;;;;5.05;3.00;;;;;;;23.02;30.94;100745.95;1741910;82;21100;-69
2022/09/05 12:07:15;;;;;;;8.30;3.33;;;;;;;23.32;30.61;100754.38;1742402;82;21528;-69
2022/09/05 12:09:54;;;;;;;5.90;3.30;;;;;;;23.41;30.54;100748.25;1742472;82;21016;-69
2022/09/05 12:13:15;;;;;;;4.40;2.50;;;;;;;23.50;30.45;100746.66;1742391;82;21237;-68
2022/09/05 12:15:44;;;;;;;6.50;4.22;;;;;;;23.70;30.23;100747.22;1742839;82;21095;-69
2022/09/05 12:18:36;;;;;;;7.42;4.30;;;;;;;23.76;28.99;100749.91;1742747;82;21293;-68
2022/09/05 12:21:25;;;;;;;5.62;3.10;;;;;;;23.64;28.18;100747.22;1743027;82;21064;-68
2022/09/05 12:24:30;;;;;;;5.42;2.50;;;;;;;23.66;29.00;100746.61;1713153;83;21031;-69
2022/09/05 12:27:09;;;;;;;5.75;3.12;;;;;;;23.67;29.36;100758.20;1746522;82;22015;-68
2022/09/05 12:29:37;;;;;;;7.57;4.23;;;;;;;23.49;28.74;100751.19;1716713;83;21065;-66
2022/09/05 12:32:08;;;;;;;6.72;4.08;;;;;;;23.33;28.91;100757.41;1782415;80;21203;-69
2022/09/05 12:34:58;;;;;;;6.85;4.10;;;;;;;23.26;28.83;100755.73;1742388;82;21080;-68
2022/09/05 12:37:36;;;;;;;10.32;5.70;;;;;;;23.06;29.38;100755.98;1742997;82;21072;-69
2022/09/05 12:40:11;;;;;;;8.28;4.20;;;;;;;22.66;30.39;100756.88;1742255;82;21244;-68
2022/09/05 12:43:02;;;;;;;6.70;4.20;;;;;;;22.32;30.23;100760.34;1711736;83;21065;-68
2022/09/05 12:45:46;;;;;;;9.08;4.55;;;;;;;21.97;30.53;100758.47;1742330;82;21044;-67
2022/09/05 12:48:45;;;;;;;10.03;5.42;;;;;;;21.73;30.20;100752.25;1711629;83;21019;-67
2022/09/05 12:51:20;;;;;;;9.93;5.30;;;;;;;21.64;30.77;100755.60;1742223;82;21001;-68
2022/09/05 12:54:01;;;;;;;8.75;6.28;;;;;;;21.52;31.09;100754.19;1716143;82;21106;-66
2022/09/05 12:56:50;;;;;;;8.63;5.55;;;;;;;21.50;32.03;100752.10;1738519;82;21153;-68